Time;durP1;ratioP1;P1;durP2;ratioP2;P2;SDS_P1;SDS_P2;PMS_P1;PMS_P2;Temp;Humidity;BMP_temperature;BMP_pressure;BME280_temperature;BME280_humidity;BME280_pressure;Samples;Min_cycle;Max_cycle;Signal;HPM_P1;HPM_P2
2022/05/26 00:00:42;;;;;;;0.43;0.20;;;21.90;39.50;;;;;;7673548;23;20325;-70
2022/05/26 00:03:45;;;;;;;0.65;0.30;;;21.80;39.50;;;;;;7670116;23;20012;-70
2022/05/26 00:07:04;;;;;;;1.65;0.30;;;21.80;39.50;;;;;;7673411;23;20013;-71
2022/05/26 00:10:05;;;;;;;1.75;0.40;;;21.80;39.60;;;;;;7672784;23;20016;-70
2022/05/26 00:13:06;;;;;;;2.25;0.35;;;21.80;39.60;;;;;;7671359;23;20420;-70
2022/05/26 00:16:09;;;;;;;1.33;0.63;;;21.80;39.70;;;;;;7671291;23;20079;-71
2022/05/26 00:19:11;;;;;;;2.22;0.30;;;21.80;39.70;;;;;;7671406;23;20020;-71
2022/05/26 00:22:12;;;;;;;2.90;0.40;;;21.80;39.80;;;;;;7671622;23;20041;-70
2022/05/26 00:25:13;;;;;;;0.40;0.30;;;21.80;39.90;;;;;;7646496;23;20080;-72
2022/05/26 00:28:14;;;;;;;3.58;0.38;;;21.70;39.90;;;;;;7671105;23;20364;-70
2022/05/26 00:31:14;;;;;;;0.95;0.30;;;21.70;40.00;;;;;;7671681;23;20017;-72
2022/05/26 00:34:15;;;;;;;2.10;0.45;;;21.60;40.00;;;;;;7672766;23;20017;-70
2022/05/26 00:37:16;;;;;;;0.77;0.30;;;21.60;40.10;;;;;;7673385;23;20047;-70
2022/05/26 00:40:17;;;;;;;0.30;0.30;;;21.60;40.20;;;;;;7646439;23;20324;-72
2022/05/26 00:43:19;;;;;;;0.38;0.25;;;21.50;40.20;;;;;;7670952;23;20025;-70
2022/05/26 00:46:27;;;;;;;2.70;0.43;;;21.50;40.20;;;;;;7671444;23;20028;-71
2022/05/26 00:49:48;;;;;;;0.35;0.20;;;21.50;40.30;;;;;;7671529;23;20017;-71
2022/05/26 00:52:56;;;;;;;1.55;0.40;;;21.50;40.40;;;;;;7672908;23;20405;-71
2022/05/26 00:56:00;;;;;;;;;;;21.50;40.50;;;;;;7670906;23;20427;-71
2022/05/26 00:59:14;;;;;;;1.83;0.52;;;21.60;40.60;;;;;;7670680;23;19940;-70
2022/05/26 01:02:17;;;;;;;1.90;0.40;;;21.40;40.50;;;;;;7671112;23;20266;-70
2022/05/26 01:05:25;;;;;;;1.15;0.40;;;21.40;40.60;;;;;;7673311;23;20033;-70
2022/05/26 01:08:45;;;;;;;2.72;0.30;;;21.30;40.70;;;;;;7671539;23;20028;-71
2022/05/26 01:11:46;;;;;;;1.05;0.40;;;21.30;40.80;;;;;;7681674;23;20020;-70
2022/05/26 01:15:18;;;;;;;3.50;0.30;;;21.40;40.80;;;;;;7682642;23;20016;-70
2022/05/26 01:18:34;;;;;;;0.32;0.30;;;21.30;40.80;;;;;;7460915;23;20027;-70
2022/05/26 01:21:38;;;;;;;1.98;0.57;;;21.30;41.40;;;;;;7487922;23;20023;-71
2022/05/26 01:24:48;;;;;;;0.77;0.38;;;21.30;40.80;;;;;;7464977;23;20107;-71
2022/05/26 01:28:20;;;;;;;1.08;0.40;;;21.30;40.90;;;;;;7487907;23;20016;-72
2022/05/26 01:31:39;;;;;;;1.98;0.40;;;21.30;41.00;;;;;;7478392;23;20012;-71
2022/05/26 01:34:55;;;;;;;0.80;0.30;;;21.20;41.10;;;;;;7487798;23;20038;-71
2022/05/26 01:42:40;;;;;;;0.75;0.40;;;21.10;41.20;;;;;;7523164;23;20023;-71
2022/05/26 01:46:18;;;;;;;0.88;0.70;;;21.10;41.30;;;;;;7500977;23;20015;-71
2022/05/26 01:49:21;;;;;;;4.45;0.50;;;21.10;41.30;;;;;;7525263;23;20030;-70
2022/05/26 01:52:31;;;;;;;3.10;0.50;;;21.10;41.60;;;;;;7525728;23;20445;-70
2022/05/26 01:56:03;;;;;;;2.03;0.40;;;21.10;41.30;;;;;;7655612;23;20425;-71
2022/05/26 01:59:11;;;;;;;0.30;0.22;;;21.00;41.30;;;;;;7559599;23;20222;-70
2022/05/26 02:02:18;;;;;;;1.43;0.43;;;21.10;41.30;;;;;;7524681;23;20415;-70
2022/05/26 02:05:23;;;;;;;0.68;0.35;;;21.10;41.30;;;;;;7525475;23;20471;-70
2022/05/26 02:12:49;;;;;;;6.75;0.40;;;21.00;41.40;;;;;;7559513;23;20014;-70
2022/05/26 02:15:55;;;;;;;0.75;0.30;;;21.00;41.40;;;;;;7559944;23;20029;-70
2022/05/26 02:19:07;;;;;;;1.10;0.28;;;21.10;41.50;;;;;;7539605;23;20038;-71
2022/05/26 02:22:30;;;;;;;0.50;0.30;;;21.00;41.50;;;;;;7570241;23;20032;-71
2022/05/26 02:25:32;;;;;;;0.88;0.50;;;21.00;41.50;;;;;;7596745;23;20014;-70
2022/05/26 02:29:51;;;;;;;3.75;0.30;;;21.10;41.50;;;;;;7597489;23;20014;-72
2022/05/26 02:31:56;;;;;;;2.15;0.40;;;21.00;41.40;;;;;;7597528;23;20024;-70
2022/05/26 02:35:00;;;;;;;1.02;0.50;;;21.00;41.40;;;;;;7627266;23;20009;-71
2022/05/26 02:38:09;;;;;;;9.55;0.50;;;21.00;41.50;;;;;;7711225;23;20028;-71
2022/05/26 02:41:11;;;;;;;2.63;0.50;;;21.00;41.60;;;;;;7685105;23;20036;-71
2022/05/26 02:45:01;;;;;;;1.55;0.40;;;21.00;41.70;;;;;;7684729;23;20024;-72
2022/05/26 02:48:40;;;;;;;2.65;0.30;;;20.90;41.80;;;;;;7682762;23;20016;-71
2022/05/26 02:51:53;;;;;;;0.98;0.40;;;20.80;41.90;;;;;;7709590;23;20020;-71
2022/05/26 02:55:25;;;;;;;0.20;0.20;;;20.80;42.00;;;;;;7683980;23;20036;-71
2022/05/26 02:59:04;;;;;;;2.40;0.30;;;20.80;42.00;;;;;;7598145;23;20041;-71
2022/05/26 03:02:12;;;;;;;1.38;0.40;;;20.80;42.10;;;;;;7594934;23;20014;-71
2022/05/26 03:05:24;;;;;;;3.42;0.60;;;20.70;42.10;;;;;;7596750;23;20026;-70
2022/05/26 03:08:28;;;;;;;0.68;0.38;;;20.80;42.20;;;;;;7572739;23;20026;-71
2022/05/26 03:11:41;;;;;;;0.95;0.50;;;20.70;42.20;;;;;;7549109;23;20021;-71
2022/05/26 03:14:41;;;;;;;2.15;0.60;;;20.60;42.40;;;;;;7571281;23;20021;-71
2022/05/26 03:17:42;;;;;;;3.80;0.50;;;20.60;42.50;;;;;;7595285;23;20314;-70
2022/05/26 03:20:43;;;;;;;2.90;0.38;;;20.60;42.70;;;;;;7579782;23;20022;-72
2022/05/26 03:23:44;;;;;;;1.10;0.50;;;20.50;42.90;;;;;;7559513;23;20038;-71
2022/05/26 03:26:45;;;;;;;0.85;0.60;;;20.40;43.00;;;;;;7559553;23;20058;-70
2022/05/26 03:29:46;;;;;;;0.70;0.38;;;20.40;43.20;;;;;;7534704;23;20014;-71
2022/05/26 03:32:46;;;;;;;1.30;0.50;;;20.30;43.40;;;;;;7559301;23;20022;-72
2022/05/26 03:42:30;;;;;;;1.40;0.60;;;20.10;44.10;;;;;;7670964;23;20278;-70
2022/05/26 03:45:34;;;;;;;2.38;0.50;;;20.00;44.30;;;;;;7672325;23;20017;-70
2022/05/26 03:48:36;;;;;;;0.32;0.32;;;20.00;44.60;;;;;;7670590;23;20013;-71
2022/05/26 03:51:36;;;;;;;1.15;0.50;;;19.80;44.70;;;;;;7671013;23;20092;-70
2022/05/26 03:54:37;;;;;;;0.70;0.25;;;19.80;44.90;;;;;;7672714;23;20434;-71
2022/05/26 03:57:38;;;;;;;0.60;0.50;;;19.80;45.10;;;;;;7670437;23;20102;-70
2022/05/26 04:00:39;;;;;;;7.70;0.90;;;19.70;45.10;;;;;;7671123;23;20067;-70
2022/05/26 04:03:40;;;;;;;0.70;0.40;;;19.70;45.30;;;;;;7670097;23;20420;-71
2022/05/26 04:06:41;;;;;;;2.70;0.50;;;19.60;45.40;;;;;;7670599;23;20020;-71
2022/05/26 04:09:42;;;;;;;3.13;0.50;;;19.60;45.40;;;;;;7672116;23;20112;-71
2022/05/26 04:12:43;;;;;;;8.38;0.55;;;19.60;45.50;;;;;;7645431;23;20017;-71
2022/05/26 04:15:44;;;;;;;2.20;0.40;;;19.60;45.50;;;;;;7666014;23;20328;-71
2022/05/26 04:18:45;;;;;;;0.90;0.47;;;19.60;45.60;;;;;;7671956;23;20016;-71
2022/05/26 04:25:06;;;;;;;1.15;0.50;;;19.60;45.80;;;;;;7682380;23;20012;-71
2022/05/26 04:28:07;;;;;;;2.83;0.43;;;19.70;45.80;;;;;;7707808;23;20020;-71
2022/05/26 04:31:08;;;;;;;3.53;0.47;;;19.70;45.70;;;;;;7682446;23;20482;-71
2022/05/26 04:34:08;;;;;;;0.50;0.50;;;19.80;45.60;;;;;;7682030;23;20020;-71
2022/05/26 04:37:09;;;;;;;3.72;0.45;;;19.80;45.70;;;;;;7707966;23;20020;-71
2022/05/26 04:40:11;;;;;;;2.35;0.60;;;19.80;45.70;;;;;;7707932;23;20094;-71
2022/05/26 04:43:12;;;;;;;1.50;0.38;;;19.80;45.70;;;;;;7681567;23;20123;-71
2022/05/26 04:46:13;;;;;;;3.03;0.50;;;19.80;45.70;;;;;;7706392;23;20085;-71
2022/05/26 04:49:14;;;;;;;1.20;0.63;;;19.80;45.70;;;;;;7682109;23;20024;-71
2022/05/26 04:52:20;;;;;;;0.30;0.30;;;19.80;45.80;;;;;;7708127;23;20054;-71
2022/05/26 04:55:20;;;;;;;0.50;0.50;;;19.80;45.80;;;;;;7707662;23;20455;-71
2022/05/26 04:58:22;;;;;;;3.80;0.50;;;19.80;45.80;;;;;;7681914;23;20100;-71
2022/05/26 05:01:23;;;;;;;0.40;0.40;;;19.80;45.80;;;;;;7708029;23;20095;-71
2022/05/26 05:04:25;;;;;;;2.55;0.80;;;19.80;45.80;;;;;;7708025;23;20028;-70
2022/05/26 05:07:26;;;;;;;1.73;0.40;;;19.80;45.90;;;;;;7683327;23;20012;-70
2022/05/26 05:10:27;;;;;;;1.33;0.50;;;19.80;45.90;;;;;;7658467;23;20016;-70
2022/05/26 05:13:28;;;;;;;2.60;0.70;;;19.80;45.90;;;;;;7681827;23;20020;-72
2022/05/26 05:16:34;;;;;;;2.17;0.55;;;19.90;46.00;;;;;;7658316;23;20025;-70
2022/05/26 05:19:35;;;;;;;1.25;0.47;;;19.90;46.00;;;;;;7682806;23;20431;-70
2022/05/26 05:22:48;;;;;;;0.50;0.40;;;20.00;46.00;;;;;;7683505;23;20026;-71
2022/05/26 05:25:52;;;;;;;0.55;0.55;;;19.90;46.00;;;;;;7682861;23;20017;-70
2022/05/26 05:29:00;;;;;;;3.42;0.52;;;19.90;46.10;;;;;;7709885;23;20030;-71
2022/05/26 05:32:31;;;;;;;2.20;0.80;;;19.90;46.10;;;;;;7709731;23;20035;-70
2022/05/26 05:35:54;;;;;;;1.27;0.68;;;19.90;46.30;;;;;;7683692;23;20236;-70
2022/05/26 05:38:58;;;;;;;0.73;0.50;;;19.90;46.40;;;;;;7684047;23;20036;-70
2022/05/26 05:41:59;;;;;;;4.28;2.15;;;19.80;46.50;;;;;;7684679;23;20321;-71
2022/05/26 05:45:00;;;;;;;2.65;1.83;;;19.80;46.60;;;;;;7711585;23;20016;-71
2022/05/26 05:48:01;;;;;;;4.55;2.92;;;19.80;46.70;;;;;;7714726;23;20016;-70
2022/05/26 05:51:02;;;;;;;2.05;1.00;;;19.80;46.80;;;;;;7714632;23;20012;-70
2022/05/26 05:54:03;;;;;;;2.00;0.70;;;19.90;46.70;;;;;;7687564;23;20009;-70
2022/05/26 05:57:05;;;;;;;4.57;0.65;;;19.90;46.70;;;;;;7687812;23;20040;-70
2022/05/26 06:00:07;;;;;;;4.15;0.77;;;20.00;46.70;;;;;;7713707;23;20110;-70
2022/05/26 06:03:09;;;;;;;0.63;0.60;;;20.00;46.70;;;;;;7714267;23;20012;-70
2022/05/26 06:06:09;;;;;;;5.82;0.75;;;20.10;46.70;;;;;;7714866;23;20052;-70
2022/05/26 06:09:18;;;;;;;3.92;0.75;;;20.20;46.50;;;;;;7688392;23;20087;-72
2022/05/26 06:12:18;;;;;;;;;;;20.30;46.30;;;;;;7713843;23;20017;-72
2022/05/26 06:15:20;;;;;;;1.25;0.60;;;20.40;46.20;;;;;;7686981;23;19911;-72
2022/05/26 06:18:21;;;;;;;4.45;0.80;;;20.50;46.00;;;;;;7714446;23;20012;-71
2022/05/26 06:21:21;;;;;;;2.05;0.90;;;20.60;45.80;;;;;;7713411;23;20055;-71
2022/05/26 06:24:23;;;;;;;13.50;0.88;;;20.70;45.70;;;;;;7688195;23;20059;-71
2022/05/26 06:30:45;;;;;;;1.35;0.73;;;21.00;45.50;;;;;;7576706;23;20010;-69
2022/05/26 06:37:15;;;;;;;0.70;0.55;;;21.20;45.10;;;;;;7600251;23;20088;-73
2022/05/26 06:40:17;;;;;;;1.05;0.60;;;21.30;45.00;;;;;;7597990;23;20036;-71
2022/05/26 06:43:18;;;;;;;1.38;0.68;;;21.30;44.90;;;;;;7599208;23;20018;-72
2022/05/26 06:46:20;;;;;;;3.30;0.73;;;21.40;44.90;;;;;;7600391;23;20358;-71
2022/05/26 06:49:21;;;;;;;0.90;0.52;;;21.50;44.80;;;;;;7599434;23;20033;-73
2022/05/26 06:52:23;;;;;;;1.13;0.63;;;21.60;44.60;;;;;;7600152;23;20021;-72
2022/05/26 06:55:24;;;;;;;3.17;1.80;;;21.70;44.30;;;;;;7598869;23;20018;-72
2022/05/26 06:58:26;;;;;;;4.53;0.80;;;21.80;44.10;;;;;;7595705;23;20044;-72
2022/05/26 07:01:45;;;;;;;3.88;0.80;;;22.00;43.70;;;;;;7582429;23;20014;-72
2022/05/26 07:04:55;;;;;;;3.30;0.68;;;22.40;43.00;;;;;;7571219;23;20405;-72
2022/05/26 07:07:55;;;;;;;20.88;3.08;;;23.20;41.60;;;;;;7655820;23;20015;-72
2022/05/26 07:11:00;;;;;;;1.88;0.68;;;23.60;40.50;;;;;;7682685;23;20377;-71
2022/05/26 07:14:01;;;;;;;2.40;0.50;;;23.70;40.00;;;;;;7705102;23;20075;-74
2022/05/26 07:17:03;;;;;;;0.60;0.50;;;23.70;40.20;;;;;;7680089;23;20032;-77
2022/05/26 07:20:04;;;;;;;2.22;0.70;;;23.50;40.70;;;;;;7680081;23;20070;-74
2022/05/26 07:23:08;;;;;;;1.05;0.57;;;23.40;41.20;;;;;;7679645;23;20055;-76
2022/05/26 07:26:12;;;;;;;17.45;1.23;;;23.30;40.70;;;;;;7682434;23;20031;-76
2022/05/26 07:29:14;;;;;;;6.32;1.10;;;23.20;40.50;;;;;;7667307;23;20013;-76
2022/05/26 07:32:15;;;;;;;1.10;0.52;;;23.10;40.80;;;;;;7682731;23;20073;-77
2022/05/26 07:35:16;;;;;;;2.10;0.52;;;23.10;41.00;;;;;;7659027;23;20028;-74
2022/05/26 07:41:36;;;;;;;2.33;0.50;;;23.20;40.80;;;;;;7708420;23;20027;-72
2022/05/26 07:44:40;;;;;;;2.75;0.40;;;23.30;40.50;;;;;;7708053;23;20021;-72
2022/05/26 07:47:41;;;;;;;2.20;0.38;;;23.20;40.40;;;;;;7709387;23;20187;-71
2022/05/26 07:50:42;;;;;;;3.45;0.57;;;23.30;40.40;;;;;;7683747;23;20025;-71
2022/05/26 07:53:43;;;;;;;1.05;0.43;;;23.30;40.20;;;;;;7681581;23;20416;-73
2022/05/26 07:56:44;;;;;;;1.08;0.40;;;23.40;40.10;;;;;;7708850;23;20032;-72
2022/05/26 07:59:45;;;;;;;1.10;0.60;;;23.40;39.90;;;;;;7683797;23;20016;-74
2022/05/26 08:02:45;;;;;;;2.85;0.57;;;23.60;39.60;;;;;;7668696;23;20043;-72
2022/05/26 08:05:47;;;;;;;1.83;0.50;;;23.70;39.30;;;;;;7707123;23;20008;-69
2022/05/26 08:08:47;;;;;;;0.75;0.40;;;23.80;39.10;;;;;;7683162;23;20036;-69
2022/05/26 08:11:49;;;;;;;3.08;0.70;;;23.80;38.90;;;;;;7709717;23;20096;-70
2022/05/26 08:14:50;;;;;;;0.88;0.43;;;23.90;38.60;;;;;;7709481;23;20019;-70
2022/05/26 08:17:51;;;;;;;2.47;0.50;;;23.90;38.60;;;;;;7707289;23;20078;-70
2022/05/26 08:20:52;;;;;;;1.27;0.60;;;24.00;38.60;;;;;;7658095;23;20020;-71
2022/05/26 08:23:53;;;;;;;1.83;0.50;;;24.00;38.60;;;;;;7709708;23;20031;-71
2022/05/26 08:26:56;;;;;;;1.75;0.40;;;24.10;38.30;;;;;;7708832;23;20022;-70
2022/05/26 08:29:59;;;;;;;6.07;0.90;;;24.30;38.10;;;;;;7657914;23;20017;-71
2022/05/26 08:33:00;;;;;;;2.03;0.60;;;24.40;38.00;;;;;;7683242;23;20119;-69
2022/05/26 08:36:01;;;;;;;1.65;0.50;;;24.50;37.70;;;;;;7708637;23;20029;-71
2022/05/26 08:39:03;;;;;;;5.40;0.80;;;24.50;37.60;;;;;;7709510;23;20304;-72
2022/05/26 08:42:05;;;;;;;1.75;0.52;;;24.50;38.20;;;;;;7681778;23;20022;-71
2022/05/26 08:45:11;;;;;;;7.85;0.45;;;24.60;37.50;;;;;;7682773;23;20016;-70
2022/05/26 08:48:29;;;;;;;2.40;0.50;;;24.70;37.40;;;;;;7681920;23;20064;-70
2022/05/26 08:51:52;;;;;;;5.00;0.90;;;24.70;37.20;;;;;;7655479;23;20074;-71
2022/05/26 08:55:01;;;;;;;0.43;0.40;;;24.70;36.90;;;;;;7681182;23;20115;-71
2022/05/26 08:58:21;;;;;;;5.50;0.80;;;24.70;36.90;;;;;;7707475;23;20467;-71
2022/05/26 09:01:27;;;;;;;2.00;0.52;;;24.70;36.80;;;;;;7681907;23;20044;-71
2022/05/26 09:04:29;;;;;;;2.25;0.80;;;24.90;36.70;;;;;;7657051;23;20024;-72
2022/05/26 09:14:52;;;;;;;1.65;0.55;;;25.20;36.30;;;;;;7708263;23;20032;-72
2022/05/26 09:17:53;;;;;;;2.22;0.60;;;25.30;36.00;;;;;;7655869;23;20100;-72
2022/05/26 09:21:10;;;;;;;2.30;0.57;;;25.40;35.90;;;;;;7707408;23;20021;-71
2022/05/26 09:24:25;;;;;;;1.33;0.70;;;25.40;35.80;;;;;;7657762;23;20009;-71
2022/05/26 09:27:36;;;;;;;0.77;0.50;;;25.50;35.70;;;;;;7683245;23;20017;-72
2022/05/26 09:30:38;;;;;;;4.63;0.80;;;25.50;35.70;;;;;;7684015;23;20434;-71
2022/05/26 09:33:39;;;;;;;2.83;0.70;;;25.60;35.60;;;;;;7710144;23;20439;-70
2022/05/26 09:36:48;;;;;;;1.52;0.60;;;25.70;35.40;;;;;;7708741;23;20024;-71
2022/05/26 09:39:49;;;;;;;;;;;25.70;35.40;;;;;;7710512;23;20016;-71
2022/05/26 09:42:58;;;;;;;2.15;0.70;;;25.70;35.50;;;;;;7708360;23;19927;-71
2022/05/26 09:46:07;;;;;;;0.95;0.80;;;25.70;35.50;;;;;;7658658;23;20092;-72
2022/05/26 09:49:12;;;;;;;0.93;0.50;;;25.70;35.60;;;;;;7710283;23;20021;-72
2022/05/26 09:52:19;;;;;;;0.98;0.52;;;25.70;35.60;;;;;;7710101;23;20087;-71
2022/05/26 09:55:32;;;;;;;1.58;0.50;;;25.60;35.60;;;;;;7684179;23;20020;-72
2022/05/26 09:58:42;;;;;;;2.05;0.80;;;25.60;35.70;;;;;;7684863;23;20017;-72
2022/05/26 10:01:44;;;;;;;0.90;0.60;;;25.70;35.70;;;;;;7659432;23;20017;-71
2022/05/26 10:04:57;;;;;;;1.60;0.60;;;25.70;35.70;;;;;;7660303;23;20438;-71
2022/05/26 10:08:10;;;;;;;1.83;0.70;;;25.80;35.80;;;;;;7711411;23;20415;-72
2022/05/26 10:11:52;;;;;;;2.00;0.77;;;26.00;35.60;;;;;;7686020;23;20027;-71
2022/05/26 10:15:05;;;;;;;0.45;0.45;;;26.10;35.60;;;;;;7484548;23;20022;-72
2022/05/26 10:18:24;;;;;;;1.20;0.90;;;26.10;35.40;;;;;;7485536;23;20026;-72
2022/05/26 10:21:35;;;;;;;;;;;26.20;35.30;;;;;;7486209;23;20329;-72
2022/05/26 10:24:55;;;;;;;3.63;0.75;;;26.30;35.20;;;;;;7519959;23;19909;-71
2022/05/26 10:28:13;;;;;;;1.52;0.60;;;26.40;35.10;;;;;;7521081;23;20094;-72
2022/05/26 10:31:14;;;;;;;;;;;26.50;35.00;;;;;;7525015;23;20042;-71
2022/05/26 10:34:45;;;;;;;1.67;0.70;;;26.60;34.80;;;;;;7525005;23;19992;-72
2022/05/26 10:38:01;;;;;;;3.53;0.70;;;26.70;34.60;;;;;;7525331;23;20023;-73
2022/05/26 10:41:16;;;;;;;2.15;0.55;;;26.80;34.50;;;;;;7525794;23;20026;-71
2022/05/26 10:44:30;;;;;;;1.20;0.52;;;26.90;34.30;;;;;;7524927;23;20034;-71
2022/05/26 10:47:54;;;;;;;1.30;0.73;;;27.10;34.10;;;;;;7524918;23;20018;-72
2022/05/26 10:51:06;;;;;;;1.33;0.80;;;27.20;33.90;;;;;;7588299;23;20010;-72
2022/05/26 10:54:21;;;;;;;4.57;0.70;;;27.30;33.60;;;;;;7635369;23;20056;-72
2022/05/26 10:57:51;;;;;;;1.55;0.77;;;27.40;33.40;;;;;;7636283;23;20409;-72
2022/05/26 11:01:28;;;;;;;4.53;1.52;;;27.80;33.00;;;;;;7499560;23;20023;-72
2022/05/26 11:04:50;;;;;;;8.35;1.15;;;28.80;31.80;;;;;;7524038;23;20321;-71
2022/05/26 11:07:55;;;;;;;6.10;0.80;;;29.90;30.20;;;;;;7525256;23;20014;-73
2022/05/26 11:10:58;;;;;;;0.60;0.60;;;30.90;29.10;;;;;;7524369;23;20022;-72
2022/05/26 11:14:05;;;;;;;2.05;0.77;;;31.50;28.10;;;;;;7524769;23;20030;-73
2022/05/26 11:17:24;;;;;;;7.32;2.70;;;31.70;27.80;;;;;;7524009;23;20019;-72
2022/05/26 11:20:34;;;;;;;2.65;1.42;;;32.00;27.60;;;;;;7534360;23;20054;-72
2022/05/26 11:23:41;;;;;;;3.28;1.17;;;32.40;27.20;;;;;;7536660;23;20025;-73
2022/05/26 11:26:49;;;;;;;1.63;0.50;;;32.70;27.00;;;;;;7536854;23;20023;-71
2022/05/26 11:29:59;;;;;;;1.98;0.75;;;33.10;26.60;;;;;;7562010;23;20337;-72
2022/05/26 11:36:32;;;;;;;3.65;0.90;;;33.10;26.10;;;;;;7576098;23;20077;-71
2022/05/26 11:39:55;;;;;;;1.08;0.60;;;33.30;26.10;;;;;;7673873;23;20021;-72
2022/05/26 11:42:58;;;;;;;4.05;0.60;;;33.50;25.80;;;;;;7668938;23;20345;-72
2022/05/26 11:46:00;;;;;;;4.00;1.00;;;33.40;25.70;;;;;;7673066;23;20329;-72
2022/05/26 11:49:01;;;;;;;6.60;0.80;;;33.40;25.90;;;;;;7673519;23;20021;-72
2022/05/26 11:52:11;;;;;;;0.75;0.52;;;33.50;25.90;;;;;;7672059;23;20530;-72
2022/05/26 11:55:45;;;;;;;2.40;0.70;;;33.60;25.80;;;;;;7672572;23;20412;-72
2022/05/26 11:58:55;;;;;;;4.57;0.60;;;33.80;25.50;;;;;;7670896;23;20408;-71
2022/05/26 12:01:59;;;;;;;4.07;0.70;;;34.10;25.50;;;;;;7673422;23;20017;-72
2022/05/26 12:05:29;;;;;;;1.67;0.70;;;34.20;25.10;;;;;;7669369;23;20067;-72
2022/05/26 12:08:36;;;;;;;1.05;0.65;;;34.10;24.80;;;;;;7668554;23;20036;-72
2022/05/26 12:12:07;;;;;;;1.15;0.60;;;33.80;25.00;;;;;;7673227;23;20420;-72
2022/05/26 12:15:23;;;;;;;1.95;0.95;;;33.90;25.00;;;;;;7672026;23;20016;-71
2022/05/26 12:18:38;;;;;;;6.32;0.82;;;34.00;25.00;;;;;;7670723;23;20045;-71
2022/05/26 12:21:48;;;;;;;5.22;0.60;;;34.20;24.90;;;;;;7670244;23;20417;-72
2022/05/26 12:24:59;;;;;;;0.50;0.40;;;34.30;24.60;;;;;;7670439;23;20492;-73
2022/05/26 12:28:15;;;;;;;1.95;0.50;;;34.40;24.50;;;;;;7672132;23;20036;-72
2022/05/26 12:31:16;;;;;;;0.47;0.47;;;34.40;24.50;;;;;;7672017;23;20017;-72
2022/05/26 12:34:23;;;;;;;1.75;0.60;;;34.50;24.40;;;;;;7670447;23;20028;-73
2022/05/26 12:37:49;;;;;;;1.20;0.68;;;34.70;24.30;;;;;;7670624;23;20045;-72
2022/05/26 12:41:07;;;;;;;0.63;0.50;;;34.80;24.20;;;;;;7670364;23;20088;-72
2022/05/26 12:44:22;;;;;;;;;;;34.90;24.30;;;;;;7668302;23;20325;-72
2022/05/26 12:51:55;;;;;;;0.88;0.52;;;34.70;23.80;;;;;;7675064;23;20017;-72
2022/05/26 12:55:12;;;;;;;1.40;0.40;;;34.80;23.70;;;;;;7674589;23;20021;-73
2022/05/26 12:58:20;;;;;;;3.07;0.53;;;34.90;23.50;;;;;;7675029;23;20091;-74
2022/05/26 13:01:23;;;;;;;0.93;0.40;;;35.10;23.50;;;;;;7673955;23;20032;-73
2022/05/26 13:04:32;;;;;;;1.33;0.75;;;35.50;23.10;;;;;;7676018;23;20029;-72
2022/05/26 13:07:34;;;;;;;7.75;0.73;;;35.80;22.80;;;;;;7674766;23;20027;-72
2022/05/26 13:10:38;;;;;;;2.65;0.82;;;36.00;22.90;;;;;;7674155;23;20092;-71
2022/05/26 13:13:44;;;;;;;0.43;0.38;;;36.50;22.50;;;;;;7674619;23;20032;-73
2022/05/26 13:16:45;;;;;;;1.83;0.80;;;36.60;22.30;;;;;;7674796;23;20017;-72
2022/05/26 13:19:52;;;;;;;3.50;0.57;;;36.80;22.00;;;;;;7677668;23;20392;-73
2022/05/26 13:22:53;;;;;;;1.23;0.90;;;37.20;21.80;;;;;;7686753;23;20050;-72
2022/05/26 13:25:54;;;;;;;3.80;0.68;;;37.80;21.50;;;;;;7686442;23;20016;-71
2022/05/26 13:29:00;;;;;;;1.67;0.60;;;38.40;21.00;;;;;;7686863;23;20103;-72
2022/05/26 13:35:24;;;;;;;2.15;0.60;;;38.10;21.10;;;;;;7686522;23;20036;-72
2022/05/26 13:38:43;;;;;;;2.88;1.00;;;37.50;21.70;;;;;;7686761;23;20052;-73
2022/05/26 13:41:46;;;;;;;0.40;0.40;;;37.50;21.50;;;;;;7659874;23;20235;-72
2022/05/26 13:44:47;;;;;;;2.60;0.52;;;37.90;21.20;;;;;;7711034;23;20428;-73
2022/05/26 13:47:49;;;;;;;1.02;0.60;;;38.30;21.00;;;;;;7711285;23;20027;-73
2022/05/26 13:50:53;;;;;;;0.80;0.50;;;39.00;20.50;;;;;;7660513;23;20100;-72
2022/05/26 13:54:12;;;;;;;2.50;0.95;;;39.60;20.00;;;;;;7685692;23;20067;-73
2022/05/26 13:57:20;;;;;;;0.47;0.45;;;39.80;19.80;;;;;;7708956;23;20017;-73
2022/05/26 14:00:28;;;;;;;1.90;0.70;;;39.60;19.90;;;;;;7684453;23;20108;-73
2022/05/26 14:03:32;;;;;;;3.90;0.68;;;40.00;19.80;;;;;;7682675;23;20095;-73
2022/05/26 14:06:35;;;;;;;1.30;0.50;;;40.50;19.30;;;;;;7660885;23;20052;-72
2022/05/26 14:09:36;;;;;;;0.75;0.55;;;40.60;19.10;;;;;;7712763;23;20016;-72
2022/05/26 14:12:37;;;;;;;1.30;0.63;;;41.00;18.90;;;;;;7685859;23;20485;-73
2022/05/26 14:15:41;;;;;;;4.97;0.50;;;41.30;18.60;;;;;;7712434;23;20013;-72
2022/05/26 14:18:53;;;;;;;3.53;0.70;;;41.20;18.40;;;;;;7682403;23;20416;-73
2022/05/26 14:21:54;;;;;;;6.60;0.80;;;41.00;18.60;;;;;;7711616;23;20090;-73
2022/05/26 14:24:58;;;;;;;1.92;0.57;;;41.00;18.70;;;;;;7685522;23;20013;-72
2022/05/26 14:28:04;;;;;;;1.63;0.45;;;41.10;18.70;;;;;;7683863;23;20008;-72
2022/05/26 14:31:20;;;;;;;0.50;0.35;;;41.00;18.60;;;;;;7685601;23;20020;-73
2022/05/26 14:34:31;;;;;;;0.60;0.40;;;41.10;18.60;;;;;;7683452;23;20412;-73
2022/05/26 14:37:32;;;;;;;0.45;0.45;;;41.20;18.30;;;;;;7684214;23;20021;-73
2022/05/26 14:40:33;;;;;;;1.10;0.40;;;41.10;18.30;;;;;;7661218;23;20536;-72
2022/05/26 14:43:35;;;;;;;1.15;0.40;;;40.90;18.50;;;;;;7686214;23;20379;-73
2022/05/26 14:46:36;;;;;;;4.20;0.30;;;40.80;18.50;;;;;;7684646;23;20013;-73
2022/05/26 14:49:37;;;;;;;1.50;0.52;;;40.50;18.60;;;;;;7672158;23;20115;-73
2022/05/26 14:52:40;;;;;;;1.20;0.45;;;40.10;18.80;;;;;;7684306;23;20396;-73
2022/05/26 14:55:41;;;;;;;1.45;0.50;;;39.80;18.90;;;;;;7684848;23;20382;-72
2022/05/26 14:58:43;;;;;;;0.77;0.50;;;39.70;19.00;;;;;;7658986;23;20134;-72
2022/05/26 15:01:44;;;;;;;4.03;0.63;;;39.50;19.20;;;;;;7684555;23;20359;-72
2022/05/26 15:04:46;;;;;;;1.95;0.68;;;38.90;19.60;;;;;;7684534;23;20032;-74
2022/05/26 15:07:47;;;;;;;2.20;0.70;;;37.90;20.40;;;;;;7657926;23;20080;-72
2022/05/26 15:10:49;;;;;;;1.90;0.60;;;36.70;21.30;;;;;;7660307;23;20328;-73
2022/05/26 15:13:52;;;;;;;0.63;0.40;;;35.70;22.20;;;;;;7659641;23;20098;-72
2022/05/26 15:16:56;;;;;;;0.40;0.40;;;35.10;22.80;;;;;;7684179;23;20020;-72
2022/05/26 15:19:59;;;;;;;0.77;0.50;;;35.70;22.50;;;;;;7711429;23;20078;-73
2022/05/26 15:23:00;;;;;;;1.88;0.50;;;36.50;21.80;;;;;;7710980;23;20320;-72
2022/05/26 15:26:11;;;;;;;1.42;0.50;;;37.20;21.20;;;;;;7685049;23;20015;-72
2022/05/26 15:29:12;;;;;;;5.22;0.60;;;37.20;21.10;;;;;;7685029;23;20016;-72
2022/05/26 15:32:27;;;;;;;0.75;0.50;;;36.80;21.50;;;;;;7710519;23;20071;-72
2022/05/26 15:35:28;;;;;;;2.28;0.47;;;36.80;21.50;;;;;;7685170;23;20328;-72
2022/05/26 15:38:35;;;;;;;2.50;0.50;;;37.20;21.30;;;;;;7711703;23;20029;-73
2022/05/26 15:41:36;;;;;;;4.53;0.73;;;37.80;20.90;;;;;;7710990;23;20035;-73
2022/05/26 15:44:37;;;;;;;1.80;0.50;;;38.00;20.70;;;;;;7683725;23;20027;-72
2022/05/26 15:47:38;;;;;;;0.80;0.63;;;37.60;20.70;;;;;;7684613;23;20039;-72
2022/05/26 15:50:40;;;;;;;0.73;0.55;;;36.60;21.40;;;;;;7658846;23;20025;-72
2022/05/26 15:53:41;;;;;;;3.17;0.50;;;35.30;22.40;;;;;;7660133;23;20023;-71
2022/05/26 15:56:44;;;;;;;1.13;0.60;;;34.40;23.40;;;;;;7710771;23;20021;-72
2022/05/26 15:59:45;;;;;;;3.92;0.50;;;33.50;24.00;;;;;;7711397;23;20027;-72
2022/05/26 16:02:46;;;;;;;3.72;0.50;;;33.00;24.60;;;;;;7684583;23;20020;-72
2022/05/26 16:05:47;;;;;;;3.20;0.70;;;33.00;24.60;;;;;;7683833;23;20016;-72
2022/05/26 16:08:49;;;;;;;2.00;0.70;;;33.20;24.60;;;;;;7657154;23;20023;-72
2022/05/26 16:11:52;;;;;;;1.00;0.50;;;33.70;24.30;;;;;;7685096;23;20012;-72
2022/05/26 16:14:53;;;;;;;2.03;0.70;;;34.00;24.10;;;;;;7684272;23;20426;-72
2022/05/26 16:17:55;;;;;;;2.42;0.50;;;34.40;23.70;;;;;;7658874;23;20019;-71
2022/05/26 16:20:56;;;;;;;3.13;0.60;;;34.80;23.40;;;;;;7658810;23;20111;-72
2022/05/26 16:23:58;;;;;;;2.55;0.63;;;35.60;23.00;;;;;;7670327;23;20013;-72
2022/05/26 16:27:03;;;;;;;1.58;0.60;;;36.30;22.50;;;;;;7659858;23;20035;-72
2022/05/26 16:30:06;;;;;;;2.78;0.63;;;36.90;22.10;;;;;;7711573;23;20475;-72
2022/05/26 16:33:07;;;;;;;3.75;1.10;;;37.20;21.70;;;;;;7661221;23;20008;-72
2022/05/26 16:39:30;;;;;;;8.88;0.82;;;37.30;21.70;;;;;;7708450;23;20040;-72
2022/05/26 16:42:32;;;;;;;2.83;0.40;;;37.10;21.70;;;;;;7658441;23;20027;-73
2022/05/26 16:45:35;;;;;;;4.13;0.70;;;37.10;21.80;;;;;;7659015;23;20079;-73
2022/05/26 16:48:37;;;;;;;1.48;0.60;;;37.00;21.70;;;;;;7659199;23;20080;-72
2022/05/26 16:51:48;;;;;;;0.90;0.40;;;36.50;22.20;;;;;;7659358;23;20088;-72
2022/05/26 16:54:49;;;;;;;3.92;0.60;;;35.30;22.90;;;;;;7658786;23;20421;-72
2022/05/26 16:57:51;;;;;;;0.57;0.40;;;34.10;24.00;;;;;;7709552;23;20320;-72
2022/05/26 17:00:52;;;;;;;6.50;0.55;;;33.10;25.00;;;;;;7683618;23;20027;-72
2022/05/26 17:03:53;;;;;;;4.05;0.98;;;32.20;26.00;;;;;;7684492;23;20035;-72